Time;durP1;ratioP1;P1;durP2;ratioP2;P2;SDS_P1;SDS_P2;PMS_P1;PMS_P2;Temp;Humidity;BMP_temperature;BMP_pressure;BME280_temperature;BME280_humidity;BME280_pressure;Samples;Min_cycle;Max_cycle;Signal;HPM_P1;HPM_P2
2022/01/21 00:00:57;;;;;;;7.20;2.10;;;;;;;18.18;42.42;103307.88;5058602;28;20116;-63
2022/01/21 00:03:23;;;;;;;5.75;1.83;;;;;;;18.17;42.52;103310.59;5058760;28;20440;-63
2022/01/21 00:05:48;;;;;;;7.25;1.73;;;;;;;18.15;41.85;103312.44;5054710;28;20179;-63
2022/01/21 00:08:14;;;;;;;5.25;1.90;;;;;;;18.11;42.39;103312.56;5054133;28;20526;-63
2022/01/21 00:10:43;;;;;;;7.72;2.15;;;;;;;18.09;42.13;103313.56;5054376;28;20029;-63
2022/01/21 00:13:18;;;;;;;6.53;1.88;;;;;;;18.07;42.50;103316.28;5053333;28;20427;-63
2022/01/21 00:15:43;;;;;;;5.35;1.70;;;;;;;18.03;42.13;103322.59;5054532;28;20039;-63
2022/01/21 00:18:10;;;;;;;6.63;1.73;;;;;;;18.02;42.19;103315.59;5054010;28;20053;-63
2022/01/21 00:31:31;;;;;;;7.35;2.15;;;;;;;17.91;42.00;103309.91;5054044;28;20063;-62
2022/01/21 00:33:56;;;;;;;7.07;1.98;;;;;;;17.88;42.42;103308.25;5052947;28;20528;-63
2022/01/21 00:36:21;;;;;;;6.93;1.70;;;;;;;17.86;42.09;103309.22;5053433;28;20108;-63
2022/01/21 00:38:47;;;;;;;5.70;2.20;;;;;;;17.84;42.09;103304.00;5053591;28;20095;-63
2022/01/21 00:41:17;;;;;;;8.15;2.10;;;;;;;17.83;42.46;103298.78;5052657;28;20285;-63
2022/01/21 00:43:45;;;;;;;4.18;1.60;;;;;;;17.80;42.09;103297.16;5053797;28;20029;-63
2022/01/21 00:46:12;;;;;;;6.72;2.00;;;;;;;17.77;42.60;103300.75;5053350;28;20061;-61
2022/01/21 00:48:39;;;;;;;8.32;2.22;;;;;;;17.76;42.18;103298.19;5052808;28;20025;-63
2022/01/21 00:51:05;;;;;;;7.45;2.00;;;;;;;17.74;42.03;103300.03;5053176;28;20041;-64
2022/01/21 00:53:30;;;;;;;5.38;1.83;;;;;;;17.72;42.37;103307.13;5053222;28;20021;-64
2022/01/21 00:55:55;;;;;;;7.07;2.05;;;;;;;17.71;42.28;103313.34;5052996;28;20480;-62
2022/01/21 00:58:21;;;;;;;7.95;1.80;;;;;;;17.69;42.24;103316.03;5053429;28;20033;-63
2022/01/21 01:00:46;;;;;;;5.80;1.60;;;;;;;17.66;42.29;103310.03;5053312;28;20033;-63
2022/01/21 01:03:14;;;;;;;6.30;1.98;;;;;;;17.63;42.46;103321.56;5052160;28;20036;-63
2022/01/21 01:05:39;;;;;;;7.18;2.03;;;;;;;17.63;42.43;103329.47;5053238;28;20504;-63
2022/01/21 01:08:06;;;;;;;7.15;1.83;;;;;;;17.65;42.08;103324.97;5053298;28;20021;-63
2022/01/21 01:21:19;;;;;;;6.68;1.60;;;;;;;17.78;41.49;103309.50;5052658;28;20048;-63
2022/01/21 01:29:13;;;;;;;7.88;1.90;;;;;;;17.81;41.33;103308.53;5053081;28;20075;-64
2022/01/21 01:31:40;;;;;;;6.38;1.67;;;;;;;17.81;41.12;103304.13;5051684;28;20072;-62
2022/01/21 01:34:06;;;;;;;5.25;1.30;;;;;;;17.82;41.38;103303.22;5053266;28;20025;-62
2022/01/21 01:36:31;;;;;;;4.68;1.50;;;;;;;17.81;41.12;103300.63;5052834;28;20082;-63
2022/01/21 01:41:44;;;;;;;7.95;1.90;;;;;;;17.80;41.48;103309.44;5052848;28;20107;-64
2022/01/21 01:49:38;;;;;;;6.07;1.55;;;;;;;17.77;41.25;103298.13;5052701;28;20351;-64
2022/01/21 01:52:12;;;;;;;6.10;1.88;;;;;;;17.78;41.14;103301.59;5051958;28;20074;-64
2022/01/21 01:54:43;;;;;;;5.18;1.60;;;;;;;17.75;41.18;103292.06;5052670;28;20060;-64
2022/01/21 01:57:09;;;;;;;4.88;1.40;;;;;;;17.75;41.18;103296.44;5051802;28;20487;-64
2022/01/21 01:59:38;;;;;;;6.05;1.83;;;;;;;17.72;40.86;103289.53;5051487;28;20140;-64
2022/01/21 02:02:09;;;;;;;5.25;1.40;;;;;;;17.73;40.85;103293.88;5052347;28;20033;-64
2022/01/21 02:04:34;;;;;;;6.05;1.67;;;;;;;17.74;41.12;103290.31;5052634;28;20072;-63
2022/01/21 02:07:00;;;;;;;7.00;1.85;;;;;;;17.75;41.37;103293.81;5051759;28;20021;-63
2022/01/21 02:09:25;;;;;;;8.00;1.77;;;;;;;17.75;41.08;103292.06;5052140;28;20025;-63
2022/01/21 02:11:51;;;;;;;6.95;2.25;;;;;;;17.76;41.08;103293.75;5051680;28;20304;-64
2022/01/21 02:14:22;;;;;;;8.50;2.50;;;;;;;17.76;41.16;103296.38;5051296;28;20040;-63
2022/01/21 02:22:17;;;;;;;7.32;1.65;;;;;;;17.78;41.09;103304.25;5041681;28;20044;-64
2022/01/21 02:25:15;;;;;;;6.50;1.67;;;;;;;17.76;41.01;103301.66;5052426;28;20028;-63
2022/01/21 02:27:47;;;;;;;7.05;1.55;;;;;;;17.77;40.73;103294.63;5050977;28;20365;-64
2022/01/21 02:30:20;;;;;;;7.85;1.60;;;;;;;17.77;40.99;103287.56;5051952;28;20040;-63
2022/01/21 02:32:52;;;;;;;6.95;1.60;;;;;;;17.79;41.19;103281.38;5052150;28;20385;-63
2022/01/21 02:35:18;;;;;;;6.20;1.60;;;;;;;17.80;41.36;103291.00;5051095;28;20029;-63
2022/01/21 02:37:44;;;;;;;4.90;1.50;;;;;;;17.81;40.91;103285.66;5052142;28;20064;-63
2022/01/21 02:40:11;;;;;;;8.50;1.60;;;;;;;17.82;40.87;103284.75;5051799;28;20029;-64
2022/01/21 02:42:37;;;;;;;5.82;1.40;;;;;;;17.82;41.12;103287.38;5051467;28;20025;-64
2022/01/21 02:45:05;;;;;;;6.97;1.70;;;;;;;17.83;40.88;103290.88;5052093;28;20399;-64
2022/01/21 02:47:30;;;;;;;5.05;1.58;;;;;;;17.83;40.66;103288.22;5050797;28;20124;-63
2022/01/21 02:49:55;;;;;;;4.97;1.40;;;;;;;17.83;40.82;103294.38;5052361;28;20100;-64
2022/01/21 02:52:24;;;;;;;6.15;1.63;;;;;;;17.82;40.53;103297.09;5051933;28;20025;-63
2022/01/21 02:54:50;;;;;;;6.57;1.90;;;;;;;17.83;40.78;103298.78;5051458;28;20017;-63
2022/01/21 02:57:15;;;;;;;6.55;1.60;;;;;;;17.83;41.03;103304.06;5051700;28;20025;-63
2022/01/21 02:59:40;;;;;;;5.47;1.50;;;;;;;17.85;40.65;103296.94;5051939;28;20031;-63
2022/01/21 03:02:05;;;;;;;5.25;1.70;;;;;;;17.85;41.16;103304.84;5051286;28;20445;-63
2022/01/21 03:06:56;;;;;;;6.93;1.40;;;;;;;17.86;40.62;103304.78;5051904;28;20496;-63
2022/01/21 03:09:25;;;;;;;6.03;1.50;;;;;;;17.88;41.10;103304.75;5052924;28;20021;-62
2022/01/21 03:11:50;;;;;;;5.97;1.70;;;;;;;17.88;40.87;103305.63;5055677;28;20416;-63
2022/01/21 03:14:15;;;;;;;6.85;1.65;;;;;;;17.88;40.80;103307.38;5054908;28;20029;-64
2022/01/21 03:16:41;;;;;;;7.47;1.65;;;;;;;17.89;40.86;103311.75;5054581;28;20492;-64
2022/01/21 03:19:06;;;;;;;5.80;1.52;;;;;;;17.87;40.52;103303.88;5055484;28;20104;-64
2022/01/21 03:21:34;;;;;;;5.53;1.88;;;;;;;17.87;40.41;103308.28;5055296;28;20380;-63
2022/01/21 03:23:59;;;;;;;8.15;1.83;;;;;;;17.86;40.23;103315.34;5054499;28;20036;-64
2022/01/21 03:26:26;;;;;;;7.90;1.60;;;;;;;17.86;40.27;103312.69;5054929;28;20464;-64
2022/01/21 03:28:57;;;;;;;5.60;1.58;;;;;;;17.86;40.26;103312.69;5055105;28;20095;-64
2022/01/21 03:31:25;;;;;;;4.30;1.55;;;;;;;17.86;40.72;103319.75;5054156;28;20025;-64
2022/01/21 03:33:51;;;;;;;6.45;1.50;;;;;;;17.86;40.76;103323.25;5055116;28;20013;-64
2022/01/21 03:36:19;;;;;;;6.25;1.58;;;;;;;17.86;40.83;103330.31;5054704;28;20027;-63
2022/01/21 03:38:44;;;;;;;5.88;1.60;;;;;;;17.88;40.86;103328.50;5053993;28;20046;-63
2022/01/21 03:41:10;;;;;;;8.00;1.63;;;;;;;17.89;40.96;103322.31;5054546;28;20021;-63
2022/01/21 03:43:36;;;;;;;8.05;1.70;;;;;;;17.88;40.69;103326.72;5053835;28;20029;-63
2022/01/21 03:46:03;;;;;;;5.75;1.45;;;;;;;17.89;40.80;103328.44;5054978;28;20029;-63
2022/01/21 03:48:28;;;;;;;5.32;1.52;;;;;;;17.87;40.69;103327.63;5054543;28;20029;-63
2022/01/21 03:50:54;;;;;;;7.47;1.60;;;;;;;17.88;40.71;103323.22;5054015;28;20064;-63
2022/01/21 03:53:20;;;;;;;8.60;2.15;;;;;;;17.87;40.40;103322.34;5054404;28;20025;-63
2022/01/21 03:55:46;;;;;;;5.28;1.30;;;;;;;17.88;40.40;103320.56;5054571;28;20043;-63
2022/01/21 03:58:12;;;;;;;5.80;1.70;;;;;;;17.87;40.54;103324.97;5053418;28;20029;-63
2022/01/21 04:00:41;;;;;;;5.93;1.63;;;;;;;17.88;40.97;103321.47;5054559;28;20055;-63
2022/01/21 04:03:07;;;;;;;5.18;1.45;;;;;;;17.88;40.84;103326.72;5054288;28;20043;-63
2022/01/21 04:05:34;;;;;;;4.47;1.30;;;;;;;17.90;40.74;103326.66;5053656;28;20461;-63
2022/01/21 04:08:00;;;;;;;7.25;2.35;;;;;;;17.89;40.90;103328.44;5054478;28;20082;-63
2022/01/21 04:10:26;;;;;;;6.05;1.70;;;;;;;17.90;40.80;103321.41;5053968;28;20137;-64
2022/01/21 04:12:54;;;;;;;5.45;1.25;;;;;;;17.90;40.40;103321.41;5053410;28;20055;-63
2022/01/21 04:15:20;;;;;;;6.47;1.52;;;;;;;17.89;40.77;103323.16;5054010;28;20045;-64
2022/01/21 04:17:45;;;;;;;6.80;2.05;;;;;;;17.89;40.08;103314.38;5054334;28;20366;-63
2022/01/21 04:20:12;;;;;;;8.13;1.80;;;;;;;17.88;40.29;103317.94;5052896;28;20021;-63
2022/01/21 04:22:44;;;;;;;5.07;1.60;;;;;;;17.87;40.35;103321.50;5054042;28;20028;-64
2022/01/21 04:25:09;;;;;;;6.65;1.40;;;;;;;17.87;40.69;103314.41;5053965;28;20530;-64
2022/01/21 04:27:37;;;;;;;8.07;1.88;;;;;;;17.89;40.49;103317.03;5053201;28;20514;-64
2022/01/21 04:30:07;;;;;;;7.00;1.77;;;;;;;17.89;40.49;103317.03;5054192;28;20051;-63
2022/01/21 04:32:32;;;;;;;6.28;1.50;;;;;;;17.91;40.91;103325.72;5054147;28;20024;-63
2022/01/21 04:34:58;;;;;;;5.85;1.40;;;;;;;17.90;40.94;103316.13;5053092;28;20349;-63
2022/01/21 04:37:23;;;;;;;7.32;1.42;;;;;;;17.91;40.79;103309.91;5053358;28;20037;-64
2022/01/21 04:40:07;;;;;;;6.47;1.30;;;;;;;17.91;40.37;103309.91;5053004;28;20064;-63
2022/01/21 04:48:01;;;;;;;6.93;1.50;;;;;;;17.90;40.66;103324.03;5052870;28;20055;-63
2022/01/21 04:50:27;;;;;;;7.63;1.45;;;;;;;17.90;40.55;103324.03;5053363;28;20516;-64
2022/01/21 04:52:52;;;;;;;4.70;1.33;;;;;;;17.89;40.52;103320.50;5053751;28;20025;-64
2022/01/21 04:55:17;;;;;;;6.82;1.60;;;;;;;17.90;40.54;103314.31;5052537;28;20485;-63
2022/01/21 04:57:43;;;;;;;5.00;1.13;;;;;;;17.90;40.94;103313.47;5053603;28;20056;-63
2022/01/21 05:00:09;;;;;;;6.13;1.30;;;;;;;17.90;40.55;103316.13;5053064;28;20465;-63
2022/01/21 05:02:35;;;;;;;6.38;1.35;;;;;;;17.91;40.47;103317.81;5052414;28;20037;-63
2022/01/21 05:05:04;;;;;;;7.10;1.55;;;;;;;17.90;40.71;103311.69;5053168;28;20025;-63
2022/01/21 05:07:33;;;;;;;8.20;1.80;;;;;;;17.89;40.65;103307.31;5053082;28;20031;-63
2022/01/21 05:09:58;;;;;;;4.53;1.30;;;;;;;17.89;40.28;103307.31;5052555;28;20027;-64
2022/01/21 05:12:26;;;;;;;6.47;1.50;;;;;;;17.89;40.13;103290.66;5052732;28;20021;-64
2022/01/21 05:15:09;;;;;;;6.90;1.50;;;;;;;17.89;40.35;103301.19;5053138;28;20336;-63
2022/01/21 05:17:43;;;;;;;8.05;1.60;;;;;;;17.90;40.61;103308.19;5053296;28;20037;-64
2022/01/21 05:20:10;;;;;;;6.10;1.55;;;;;;;17.91;40.87;103301.97;5052911;28;20423;-64
2022/01/21 05:22:35;;;;;;;6.40;1.48;;;;;;;17.91;40.79;103300.22;5052228;28;20029;-62
2022/01/21 05:25:00;;;;;;;4.60;1.40;;;;;;;17.92;40.54;103307.19;5052965;28;20029;-62
2022/01/21 05:27:25;;;;;;;6.68;1.35;;;;;;;17.91;40.46;103310.78;5052583;28;20294;-63
2022/01/21 05:29:51;;;;;;;5.97;1.17;;;;;;;17.91;40.54;103312.53;5051550;28;20029;-63
2022/01/21 05:32:16;;;;;;;4.35;1.30;;;;;;;17.92;40.51;103309.00;5051935;28;20040;-63
2022/01/21 05:34:41;;;;;;;7.40;1.73;;;;;;;17.91;40.57;103312.53;5052685;28;20039;-63
2022/01/21 05:37:07;;;;;;;5.65;1.50;;;;;;;17.91;40.46;103312.53;5051670;28;20093;-62
2022/01/21 05:39:33;;;;;;;6.35;1.50;;;;;;;17.90;40.75;103322.25;5052798;28;20025;-63
2022/01/21 05:42:00;;;;;;;7.60;1.70;;;;;;;17.90;40.46;103321.41;5052668;28;20450;-64
2022/01/21 05:47:02;;;;;;;6.57;1.23;;;;;;;17.91;40.51;103320.44;5053173;28;20044;-63
2022/01/21 05:49:30;;;;;;;4.97;1.23;;;;;;;17.92;40.45;103312.47;5052298;28;20081;-63
2022/01/21 05:52:15;;;;;;;7.07;1.60;;;;;;;17.92;40.27;103311.63;5051831;28;20025;-63
2022/01/21 05:54:43;;;;;;;6.10;1.33;;;;;;;17.91;40.25;103305.50;5052497;28;20103;-63
2022/01/21 05:57:11;;;;;;;4.70;1.33;;;;;;;17.91;40.58;103315.19;5052103;28;20041;-63
2022/01/21 05:59:36;;;;;;;6.10;1.63;;;;;;;17.90;40.23;103321.41;5052731;28;20100;-63
2022/01/21 06:02:05;;;;;;;6.55;1.48;;;;;;;17.90;40.23;103324.88;5052441;28;20505;-63
2022/01/21 06:04:37;;;;;;;5.13;1.30;;;;;;;17.90;40.76;103322.25;5051272;28;20045;-62
2022/01/21 06:07:05;;;;;;;6.18;1.55;;;;;;;17.92;41.46;103323.03;5052535;28;20393;-63
2022/01/21 06:09:30;;;;;;;5.93;1.50;;;;;;;17.95;41.87;103328.19;5052025;28;20029;-63
2022/01/21 06:11:55;;;;;;;6.75;1.63;;;;;;;17.99;41.71;103328.94;5051833;28;20443;-63
2022/01/21 06:14:21;;;;;;;6.53;1.95;;;;;;;18.02;41.86;103333.22;5052215;28;20523;-62
2022/01/21 06:16:46;;;;;;;4.55;1.10;;;;;;;18.05;41.92;103333.94;5052332;28;20111;-63
2022/01/21 06:19:11;;;;;;;5.50;1.27;;;;;;;18.07;41.83;103341.78;5051346;28;20123;-63
2022/01/21 06:21:37;;;;;;;5.80;1.45;;;;;;;18.08;41.59;103344.34;5052293;28;20036;-63
2022/01/21 06:24:02;;;;;;;7.57;1.80;;;;;;;18.09;41.60;103343.44;5052105;28;20067;-63
2022/01/21 06:26:27;;;;;;;7.05;1.38;;;;;;;18.12;41.74;103347.75;5051357;28;20091;-63
2022/01/21 06:28:53;;;;;;;4.77;1.20;;;;;;;18.13;41.49;103342.41;5052334;28;20433;-63
2022/01/21 06:31:18;;;;;;;5.85;1.20;;;;;;;18.15;42.45;103347.63;5052109;28;20272;-63
2022/01/21 06:33:43;;;;;;;6.80;1.30;;;;;;;18.17;42.73;103348.41;5051619;28;20468;-63
2022/01/21 06:36:08;;;;;;;7.72;1.50;;;;;;;18.19;42.63;103359.75;5051880;28;20031;-64
2022/01/21 06:38:35;;;;;;;6.00;1.50;;;;;;;18.21;42.56;103359.69;5051993;28;20503;-65
2022/01/21 06:41:01;;;;;;;5.28;1.15;;;;;;;18.23;42.61;103363.13;5051592;28;20037;-63
2022/01/21 06:43:27;;;;;;;7.22;1.48;;;;;;;18.25;42.76;103363.94;5054295;28;20421;-63
2022/01/21 06:45:52;;;;;;;5.90;1.27;;;;;;;18.26;42.45;103373.53;5056019;28;20021;-63
2022/01/21 06:48:17;;;;;;;5.30;1.42;;;;;;;18.27;42.42;103375.28;5054790;28;20519;-63
2022/01/21 06:50:43;;;;;;;5.83;1.30;;;;;;;18.29;42.50;103374.28;5055660;28;20033;-64
2022/01/21 06:53:08;;;;;;;5.00;1.20;;;;;;;18.30;42.63;103375.16;5055470;28;20293;-64
2022/01/21 06:55:34;;;;;;;5.57;1.45;;;;;;;18.31;42.43;103382.16;5054984;28;20044;-63
2022/01/21 06:57:59;;;;;;;7.05;1.60;;;;;;;18.31;42.46;103371.59;5055829;28;20021;-63
2022/01/21 07:00:24;;;;;;;5.78;1.50;;;;;;;18.31;42.38;103379.50;5055186;28;20040;-63
2022/01/21 07:02:52;;;;;;;5.10;1.20;;;;;;;18.33;42.15;103382.94;5054718;28;20453;-63
2022/01/21 07:05:18;;;;;;;5.00;1.13;;;;;;;18.34;42.30;103381.16;5055090;28;20056;-63
2022/01/21 07:07:44;;;;;;;6.30;1.30;;;;;;;18.31;42.09;103383.00;5054618;28;20029;-63
2022/01/21 07:10:12;;;;;;;7.38;1.90;;;;;;;18.34;42.03;103402.25;5055238;28;20040;-63
2022/01/21 07:12:38;;;;;;;5.28;1.40;;;;;;;18.34;42.22;103397.88;5055431;28;20052;-63
2022/01/21 07:15:06;;;;;;;4.60;1.40;;;;;;;18.35;42.14;103406.63;5054671;28;20059;-63
2022/01/21 07:17:31;;;;;;;5.70;1.30;;;;;;;18.35;42.62;103406.63;5055021;28;20027;-62
2022/01/21 07:20:00;;;;;;;6.82;1.70;;;;;;;18.38;42.49;103403.88;5055180;28;20037;-63
2022/01/21 07:22:25;;;;;;;6.95;1.33;;;;;;;18.38;42.58;103395.94;5053943;28;20473;-63
2022/01/21 07:24:50;;;;;;;6.17;1.50;;;;;;;18.39;42.91;103398.53;5055219;28;20032;-63
2022/01/21 07:27:16;;;;;;;6.40;1.35;;;;;;;18.40;42.93;103402.84;5054879;28;20827;-63
2022/01/21 07:29:42;;;;;;;8.95;1.58;;;;;;;18.41;42.83;103396.66;5054269;28;20104;-63
2022/01/21 07:32:08;;;;;;;7.38;1.50;;;;;;;18.43;42.81;103399.25;5054717;28;20070;-62
2022/01/21 07:34:33;;;;;;;5.55;1.15;;;;;;;18.42;42.87;103403.69;5054816;28;20029;-63
2022/01/21 07:37:02;;;;;;;5.60;1.33;;;;;;;18.43;42.71;103413.28;5053856;28;20055;-63
2022/01/21 07:39:27;;;;;;;5.93;1.40;;;;;;;18.44;42.95;103416.81;5054649;28;20036;-63
2022/01/21 07:41:52;;;;;;;9.23;1.27;;;;;;;18.43;42.72;103415.09;5054713;28;20033;-62
2022/01/21 07:44:18;;;;;;;6.35;1.45;;;;;;;18.45;42.78;103419.38;5053681;28;20033;-62
2022/01/21 07:46:46;;;;;;;6.18;1.33;;;;;;;18.46;43.17;103423.72;5054863;28;20032;-62
2022/01/21 07:49:12;;;;;;;6.32;1.50;;;;;;;18.48;42.76;103413.09;5054433;28;20108;-62
2022/01/21 07:51:37;;;;;;;7.60;1.50;;;;;;;18.44;41.63;103407.09;5053847;28;20128;-63
2022/01/21 07:54:04;;;;;;;4.55;1.20;;;;;;;18.43;42.39;103423.00;5054055;28;20044;-62
2022/01/21 07:56:32;;;;;;;7.03;1.17;;;;;;;18.44;42.70;103422.94;5054215;28;20393;-64
2022/01/21 07:58:57;;;;;;;5.80;1.30;;;;;;;18.47;42.98;103421.97;5053875;28;20025;-63
2022/01/21 08:01:22;;;;;;;6.73;1.20;;;;;;;18.47;42.83;103420.19;5054179;28;20083;-64
2022/01/21 08:03:48;;;;;;;3.93;1.20;;;;;;;18.52;43.06;103413.81;5053595;28;20326;-64
2022/01/21 08:06:13;;;;;;;7.38;1.30;;;;;;;18.51;41.81;103404.22;5054284;28;20289;-65
2022/01/21 08:08:41;;;;;;;5.38;1.15;;;;;;;18.51;42.37;103394.50;5054575;28;20057;-64
2022/01/21 08:11:07;;;;;;;5.07;1.00;;;;;;;18.55;42.63;103405.78;5053375;28;20156;-63
2022/01/21 08:13:39;;;;;;;8.27;1.50;;;;;;;18.55;42.33;103396.09;5054237;28;20489;-63
2022/01/21 08:16:04;;;;;;;5.55;1.20;;;;;;;18.57;42.96;103396.03;5054377;28;20067;-62
2022/01/21 08:18:30;;;;;;;7.38;1.40;;;;;;;18.59;43.09;103394.16;5053076;28;20463;-63
2022/01/21 08:20:55;;;;;;;8.07;1.30;;;;;;;18.61;43.10;103394.94;5054098;28;20075;-64
2022/01/21 08:23:20;;;;;;;6.25;1.20;;;;;;;18.62;43.10;103392.25;5053913;28;20041;-65
2022/01/21 08:25:46;;;;;;;6.57;1.40;;;;;;;18.63;43.07;103385.19;5053268;28;20083;-64
2022/01/21 08:28:11;;;;;;;5.78;1.13;;;;;;;18.65;43.15;103386.81;5053850;28;20036;-64
2022/01/21 08:30:37;;;;;;;6.70;1.13;;;;;;;18.66;43.33;103379.78;5053972;28;20362;-63
2022/01/21 08:33:03;;;;;;;8.07;1.33;;;;;;;18.66;43.30;103371.84;5053007;28;20025;-64
2022/01/21 08:35:28;;;;;;;4.90;1.23;;;;;;;18.68;43.30;103377.94;5053354;28;20025;-64
2022/01/21 08:37:53;;;;;;;5.57;1.35;;;;;;;18.69;43.07;103382.25;5053776;28;20452;-69
2022/01/21 08:40:26;;;;;;;6.93;1.48;;;;;;;18.75;43.09;103387.28;5060863;28;20032;-68
2022/01/21 08:42:52;;;;;;;7.88;1.63;;;;;;;18.84;42.85;103397.47;5054927;28;20029;-71
2022/01/21 08:45:18;;;;;;;5.68;1.20;;;;;;;18.96;42.72;103409.31;5053827;28;20098;-67
2022/01/21 08:47:43;;;;;;;11.63;1.40;;;;;;;19.02;42.28;103408.16;5053623;28;20025;-68
2022/01/21 08:50:12;;;;;;;6.13;1.23;;;;;;;19.09;42.17;103400.81;5054316;28;20475;-67
2022/01/21 08:52:38;;;;;;;6.45;1.10;;;;;;;19.14;42.20;103397.03;5054760;28;20062;-67
2022/01/21 08:55:09;;;;;;;8.15;1.90;;;;;;;19.21;42.08;103406.41;5054768;28;20017;-69
2022/01/21 08:57:37;;;;;;;4.63;1.20;;;;;;;19.26;42.52;103405.34;5053998;28;20125;-64
2022/01/21 09:00:13;;;;;;;5.63;1.30;;;;;;;19.23;42.36;103411.59;5052621;28;20025;-65
2022/01/21 09:02:38;;;;;;;7.15;1.70;;;;;;;19.19;42.90;103415.34;5053527;28;20024;-64
2022/01/21 09:05:07;;;;;;;6.13;1.25;;;;;;;19.14;42.89;103407.63;5053498;28;20025;-65
2022/01/21 09:07:32;;;;;;;5.55;1.48;;;;;;;19.12;42.96;103408.59;5051921;28;20047;-65
2022/01/21 09:09:57;;;;;;;8.95;1.40;;;;;;;19.09;42.96;103406.97;5053266;28;20384;-65
2022/01/21 09:12:23;;;;;;;4.40;0.95;;;;;;;19.06;43.19;103383.31;5052907;28;20036;-64
2022/01/21 09:14:49;;;;;;;5.10;1.20;;;;;;;19.04;42.84;103377.22;5052387;28;20044;-65
2022/01/21 09:17:15;;;;;;;5.72;1.30;;;;;;;19.03;42.99;103372.88;5052924;28;20021;-65
2022/01/21 09:19:40;;;;;;;9.27;1.40;;;;;;;19.02;43.34;103368.53;5053254;28;20108;-65
2022/01/21 09:22:06;;;;;;;5.50;1.30;;;;;;;19.01;43.10;103370.31;5052439;28;20504;-68
2022/01/21 09:24:34;;;;;;;6.65;1.40;;;;;;;18.97;40.33;103363.44;5052961;28;20071;-66
2022/01/21 09:27:02;;;;;;;5.32;1.17;;;;;;;18.91;41.15;103365.50;5052967;28;20051;-65
2022/01/21 09:29:28;;;;;;;6.80;1.20;;;;;;;18.85;41.54;103371.94;5051855;28;20041;-66
2022/01/21 09:31:53;;;;;;;5.32;1.10;;;;;;;18.82;42.32;103380.81;5053014;28;20388;-64
2022/01/21 09:34:19;;;;;;;6.30;1.40;;;;;;;18.82;42.62;103379.97;5052639;28;20032;-64
2022/01/21 09:36:45;;;;;;;5.13;1.20;;;;;;;18.85;42.47;103383.34;5052258;28;20107;-63
2022/01/21 09:39:11;;;;;;;5.65;0.95;;;;;;;18.89;42.63;103378.78;5052293;28;20524;-65
2022/01/21 09:41:37;;;;;;;6.13;1.38;;;;;;;18.91;42.58;103386.66;5052349;28;20484;-66
2022/01/21 09:44:04;;;;;;;5.45;1.05;;;;;;;18.94;42.96;103391.78;5056901;28;20029;-69
2022/01/21 09:46:36;;;;;;;5.22;1.20;;;;;;;18.96;43.05;103389.94;5063697;28;20041;-69
2022/01/21 09:49:08;;;;;;;6.70;1.40;;;;;;;18.97;43.24;103397.78;5064057;28;20032;-69
2022/01/21 09:51:37;;;;;;;5.00;1.40;;;;;;;18.96;43.24;103401.38;5063605;28;20025;-69
2022/01/21 09:54:06;;;;;;;7.53;1.40;;;;;;;18.95;43.25;103410.22;5058755;28;20133;-68
2022/01/21 09:56:34;;;;;;;6.18;1.17;;;;;;;18.94;43.69;103411.13;5051398;28;20087;-69
2022/01/21 09:59:00;;;;;;;4.93;1.13;;;;;;;18.93;43.60;103398.00;5052688;28;20033;-69
2022/01/21 10:01:26;;;;;;;5.07;1.20;;;;;;;18.91;41.84;103408.63;5053128;28;20115;-68
2022/01/21 10:03:53;;;;;;;8.93;1.25;;;;;;;18.84;41.69;103410.69;5052170;28;20512;-69
2022/01/21 10:06:23;;;;;;;5.88;1.35;;;;;;;18.82;42.17;103419.59;5052258;28;20020;-68
2022/01/21 10:08:50;;;;;;;4.10;1.30;;;;;;;18.79;42.26;103420.56;5052508;28;20108;-70
2022/01/21 10:11:15;;;;;;;7.07;1.33;;;;;;;18.77;41.72;103418.91;5051465;28;20021;-73
2022/01/21 10:13:42;;;;;;;7.03;1.42;;;;;;;18.78;42.86;103431.22;5052039;28;20392;-72
2022/01/21 10:16:09;;;;;;;10.45;1.40;;;;;;;18.79;43.39;103427.66;5051689;28;20384;-73
2022/01/21 10:18:35;;;;;;;5.78;1.13;;;;;;;18.80;43.50;103440.81;5054075;28;20025;-72
2022/01/21 10:21:06;;;;;;;4.68;1.17;;;;;;;18.82;43.66;103440.72;5056267;28;20488;-70
2022/01/21 10:23:35;;;;;;;4.93;1.02;;;;;;;18.83;43.82;103442.44;5056001;28;20029;-71
2022/01/21 10:26:08;;;;;;;5.18;1.30;;;;;;;18.86;43.56;103447.63;5055789;28;20108;-72
2022/01/21 10:28:35;;;;;;;5.65;1.30;;;;;;;18.84;43.85;103452.97;5056807;28;20029;-73
2022/01/21 10:31:05;;;;;;;4.93;1.40;;;;;;;18.84;43.48;103438.91;5056696;28;20029;-68
2022/01/21 10:33:30;;;;;;;4.75;1.15;;;;;;;18.89;43.63;103450.13;5056497;28;20473;-73
2022/01/21 10:36:21;;;;;;;7.38;1.65;;;;;;;18.91;43.26;103445.63;5057591;28;20033;-73
2022/01/21 10:38:48;;;;;;;5.07;1.10;;;;;;;18.94;43.63;103447.28;5056964;28;20060;-72
2022/01/21 10:41:16;;;;;;;6.13;1.33;;;;;;;18.94;43.81;103442.84;5058092;28;20040;-71
2022/01/21 10:43:44;;;;;;;7.65;1.20;;;;;;;18.93;43.75;103449.09;5058902;28;20037;-70
2022/01/21 10:46:16;;;;;;;6.72;1.40;;;;;;;18.94;44.07;103450.78;5057027;28;20033;-70
2022/01/21 10:48:55;;;;;;;5.85;1.20;;;;;;;18.94;43.94;103456.06;5057911;28;20104;-68
2022/01/21 10:51:25;;;;;;;8.18;1.50;;;;;;;18.96;43.58;103458.63;5057986;28;20057;-68
2022/01/21 10:53:51;;;;;;;8.20;1.60;;;;;;;18.96;43.73;103456.88;5057355;28;20025;-70
2022/01/21 10:56:18;;;;;;;8.95;1.20;;;;;;;18.96;44.29;103448.06;5057477;28;20052;-70
2022/01/21 10:58:51;;;;;;;6.95;1.35;;;;;;;18.96;44.33;103453.34;5055846;28;20043;-72
2022/01/21 11:01:21;;;;;;;8.65;1.75;;;;;;;18.94;44.29;103439.34;5054889;28;20037;-71
2022/01/21 11:04:10;;;;;;;7.05;1.42;;;;;;;18.94;44.20;103442.00;5055871;28;20037;-70
2022/01/21 11:06:48;;;;;;;9.70;1.48;;;;;;;18.93;44.70;103440.28;5055397;28;20040;-72
2022/01/21 11:09:22;;;;;;;7.15;1.52;;;;;;;18.92;44.58;103435.94;5055651;28;20032;-71
2022/01/21 11:11:50;;;;;;;7.55;1.42;;;;;;;18.91;44.51;103428.91;5055439;28;20079;-69
2022/01/21 11:14:19;;;;;;;6.55;1.13;;;;;;;18.91;44.54;103415.72;5054423;28;20037;-70
2022/01/21 11:16:47;;;;;;;8.18;1.58;;;;;;;18.90;44.91;103422.78;5055058;28;20044;-72
2022/01/21 11:19:23;;;;;;;6.93;1.45;;;;;;;18.91;44.78;103418.34;5054876;28;20040;-69
2022/01/21 11:21:51;;;;;;;5.78;1.15;;;;;;;18.90;45.05;103411.34;5054349;28;20025;-69
2022/01/21 11:24:17;;;;;;;6.50;1.25;;;;;;;18.91;45.08;103400.72;5054884;28;20088;-72
2022/01/21 11:26:43;;;;;;;8.50;1.55;;;;;;;18.90;45.14;103395.47;5055145;28;20098;-72
2022/01/21 11:29:09;;;;;;;5.43;1.33;;;;;;;18.92;44.85;103388.38;5053093;28;20473;-71
2022/01/21 11:31:35;;;;;;;4.80;1.10;;;;;;;18.93;44.42;103390.06;5054895;28;20469;-73
2022/01/21 11:34:01;;;;;;;6.82;1.45;;;;;;;18.95;44.47;103377.66;5055087;28;20033;-71
2022/01/21 11:36:26;;;;;;;5.82;1.35;;;;;;;19.02;44.88;103382.59;5053737;28;20443;-68
2022/01/21 11:38:55;;;;;;;6.95;1.40;;;;;;;19.06;44.47;103377.16;5056698;28;20045;-70
2022/01/21 11:41:24;;;;;;;4.53;1.17;;;;;;;19.15;44.82;103379.38;5057052;28;20029;-68
2022/01/21 11:43:52;;;;;;;6.07;1.40;;;;;;;19.26;44.78;103376.25;5054027;28;20393;-69
2022/01/21 11:46:37;;;;;;;5.43;1.40;;;;;;;19.36;44.07;103385.50;5054721;28;20374;-69
2022/01/21 11:49:09;;;;;;;8.02;1.45;;;;;;;19.40;43.95;103382.59;5054224;28;20035;-67
2022/01/21 11:51:37;;;;;;;7.25;1.35;;;;;;;19.41;43.73;103386.13;5054867;28;20060;-69
2022/01/21 11:54:08;;;;;;;5.88;1.90;;;;;;;19.43;43.54;103388.69;5054610;28;20013;-69
2022/01/21 11:56:49;;;;;;;6.07;1.67;;;;;;;19.43;43.53;103383.41;5053457;28;20021;-68
2022/01/21 11:59:34;;;;;;;6.38;1.65;;;;;;;19.39;42.37;103374.75;5054180;28;20032;-72
2022/01/21 12:02:15;;;;;;;7.85;2.08;;;;;;;19.37;43.09;103373.97;5055361;28;20102;-64
2022/01/21 12:04:47;;;;;;;8.02;1.65;;;;;;;19.32;43.19;103376.81;5053315;28;20041;-64
2022/01/21 12:07:37;;;;;;;8.50;1.67;;;;;;;19.27;43.45;103373.53;5053956;28;20492;-66
2022/01/21 12:10:12;;;;;;;9.43;1.75;;;;;;;19.22;44.28;103378.19;5053544;28;20029;-67
2022/01/21 12:12:55;;;;;;;7.95;1.52;;;;;;;19.20;43.74;103377.38;5054071;28;20025;-66
2022/01/21 12:15:26;;;;;;;8.68;1.52;;;;;;;19.15;43.83;103360.88;5053807;28;20086;-66
2022/01/21 12:18:04;;;;;;;10.25;1.70;;;;;;;19.13;44.25;103368.03;5053303;28;20024;-66